sensor_id;sensor_type;location;lat;lon;timestamp;P1;durP1;ratioP1;P2;durP2;ratioP2
15876;SDS011;8037;51.666;7.834;2023-06-14T00:01:32;2.20;;;2.10;;
15876;SDS011;8037;51.666;7.834;2023-06-14T00:03:59;2.00;;;1.80;;
15876;SDS011;8037;51.666;7.834;2023-06-14T00:06:26;3.77;;;2.40;;
15876;SDS011;8037;51.666;7.834;2023-06-14T00:08:52;2.03;;;1.93;;
15876;SDS011;8037;51.666;7.834;2023-06-14T00:11:19;3.50;;;1.80;;
15876;SDS011;8037;51.666;7.834;2023-06-14T00:13:45;7.00;;;2.20;;
15876;SDS011;8037;51.666;7.834;2023-06-14T00:16:11;2.50;;;1.67;;
15876;SDS011;8037;51.666;7.834;2023-06-14T00:18:37;10.90;;;2.33;;
15876;SDS011;8037;51.666;7.834;2023-06-14T00:21:03;4.83;;;2.20;;
15876;SDS011;8037;51.666;7.834;2023-06-14T00:23:29;2.90;;;2.20;;
15876;SDS011;8037;51.666;7.834;2023-06-14T00:25:55;2.30;;;2.10;;
15876;SDS011;8037;51.666;7.834;2023-06-14T00:28:21;2.87;;;2.00;;
15876;SDS011;8037;51.666;7.834;2023-06-14T00:30:47;3.90;;;2.47;;
15876;SDS011;8037;51.666;7.834;2023-06-14T00:33:13;4.23;;;2.47;;
15876;SDS011;8037;51.666;7.834;2023-06-14T00:35:40;2.47;;;1.97;;
15876;SDS011;8037;51.666;7.834;2023-06-14T00:38:06;6.93;;;1.87;;
15876;SDS011;8037;51.666;7.834;2023-06-14T00:40:32;2.03;;;1.90;;
15876;SDS011;8037;51.666;7.834;2023-06-14T00:42:59;3.37;;;2.10;;
15876;SDS011;8037;51.666;7.834;2023-06-14T00:45:26;3.07;;;2.40;;
15876;SDS011;8037;51.666;7.834;2023-06-14T00:47:51;2.83;;;2.50;;
15876;SDS011;8037;51.666;7.834;2023-06-14T00:50:20;2.73;;;2.30;;
15876;SDS011;8037;51.666;7.834;2023-06-14T00:52:48;2.60;;;2.40;;
15876;SDS011;8037;51.666;7.834;2023-06-14T00:55:14;2.23;;;2.03;;
15876;SDS011;8037;51.666;7.834;2023-06-14T00:57:40;2.33;;;2.23;;
15876;SDS011;8037;51.666;7.834;2023-06-14T01:00:06;6.50;;;2.10;;
15876;SDS011;8037;51.666;7.834;2023-06-14T01:02:37;8.90;;;1.90;;
15876;SDS011;8037;51.666;7.834;2023-06-14T01:05:03;8.20;;;2.90;;
15876;SDS011;8037;51.666;7.834;2023-06-14T01:10:20;3.67;;;1.70;;
15876;SDS011;8037;51.666;7.834;2023-06-14T01:12:58;2.30;;;1.73;;
15876;SDS011;8037;51.666;7.834;2023-06-14T01:15:27;3.67;;;2.07;;
15876;SDS011;8037;51.666;7.834;2023-06-14T01:17:55;3.27;;;2.20;;
15876;SDS011;8037;51.666;7.834;2023-06-14T01:20:28;4.53;;;2.37;;
15876;SDS011;8037;51.666;7.834;2023-06-14T01:22:54;1.70;;;1.60;;
15876;SDS011;8037;51.666;7.834;2023-06-14T01:25:21;2.63;;;2.23;;
15876;SDS011;8037;51.666;7.834;2023-06-14T01:27:48;1.87;;;1.63;;
15876;SDS011;8037;51.666;7.834;2023-06-14T01:30:14;2.40;;;2.23;;
15876;SDS011;8037;51.666;7.834;2023-06-14T01:32:41;4.40;;;2.20;;
15876;SDS011;8037;51.666;7.834;2023-06-14T01:35:06;3.23;;;2.53;;
15876;SDS011;8037;51.666;7.834;2023-06-14T01:37:32;6.30;;;2.20;;
15876;SDS011;8037;51.666;7.834;2023-06-14T01:39:58;1.60;;;1.50;;
15876;SDS011;8037;51.666;7.834;2023-06-14T01:42:25;3.13;;;2.13;;
15876;SDS011;8037;51.666;7.834;2023-06-14T01:44:52;2.70;;;2.13;;
15876;SDS011;8037;51.666;7.834;2023-06-14T01:47:19;3.27;;;2.30;;
15876;SDS011;8037;51.666;7.834;2023-06-14T01:49:46;16.23;;;2.57;;
15876;SDS011;8037;51.666;7.834;2023-06-14T01:52:12;2.80;;;2.10;;
15876;SDS011;8037;51.666;7.834;2023-06-14T01:54:38;2.00;;;1.90;;
15876;SDS011;8037;51.666;7.834;2023-06-14T01:57:07;6.50;;;2.23;;
15876;SDS011;8037;51.666;7.834;2023-06-14T01:59:34;2.20;;;1.90;;
15876;SDS011;8037;51.666;7.834;2023-06-14T02:02:00;5.90;;;2.03;;
15876;SDS011;8037;51.666;7.834;2023-06-14T02:04:26;3.53;;;2.37;;
15876;SDS011;8037;51.666;7.834;2023-06-14T02:06:52;2.47;;;2.27;;
15876;SDS011;8037;51.666;7.834;2023-06-14T02:09:18;2.03;;;1.73;;
15876;SDS011;8037;51.666;7.834;2023-06-14T02:11:44;2.73;;;2.47;;
15876;SDS011;8037;51.666;7.834;2023-06-14T02:14:10;3.10;;;1.43;;
15876;SDS011;8037;51.666;7.834;2023-06-14T02:16:36;5.10;;;2.37;;
15876;SDS011;8037;51.666;7.834;2023-06-14T02:19:03;1.93;;;1.80;;
15876;SDS011;8037;51.666;7.834;2023-06-14T02:21:29;3.40;;;2.17;;
15876;SDS011;8037;51.666;7.834;2023-06-14T02:23:55;4.03;;;2.00;;
15876;SDS011;8037;51.666;7.834;2023-06-14T02:26:23;2.67;;;2.10;;
15876;SDS011;8037;51.666;7.834;2023-06-14T02:28:49;3.63;;;2.10;;
15876;SDS011;8037;51.666;7.834;2023-06-14T02:31:15;1.83;;;1.73;;
15876;SDS011;8037;51.666;7.834;2023-06-14T02:33:41;3.50;;;2.20;;
15876;SDS011;8037;51.666;7.834;2023-06-14T02:36:07;3.83;;;2.37;;
15876;SDS011;8037;51.666;7.834;2023-06-14T02:38:32;2.73;;;2.00;;
15876;SDS011;8037;51.666;7.834;2023-06-14T02:40:58;3.50;;;2.20;;
15876;SDS011;8037;51.666;7.834;2023-06-14T02:43:26;2.43;;;2.07;;
15876;SDS011;8037;51.666;7.834;2023-06-14T02:45:52;2.00;;;1.87;;
15876;SDS011;8037;51.666;7.834;2023-06-14T02:48:18;2.70;;;2.03;;
15876;SDS011;8037;51.666;7.834;2023-06-14T02:50:44;4.80;;;2.03;;
15876;SDS011;8037;51.666;7.834;2023-06-14T02:53:10;2.13;;;1.97;;
15876;SDS011;8037;51.666;7.834;2023-06-14T02:55:37;3.23;;;2.40;;
15876;SDS011;8037;51.666;7.834;2023-06-14T02:58:04;6.10;;;1.90;;
15876;SDS011;8037;51.666;7.834;2023-06-14T03:00:30;4.57;;;2.40;;
15876;SDS011;8037;51.666;7.834;2023-06-14T03:02:56;2.80;;;2.13;;
15876;SDS011;8037;51.666;7.834;2023-06-14T03:05:22;4.00;;;2.23;;
15876;SDS011;8037;51.666;7.834;2023-06-14T03:07:49;3.10;;;1.67;;
15876;SDS011;8037;51.666;7.834;2023-06-14T03:10:15;2.90;;;2.00;;
15876;SDS011;8037;51.666;7.834;2023-06-14T03:12:41;6.27;;;1.33;;
15876;SDS011;8037;51.666;7.834;2023-06-14T03:15:07;3.40;;;2.20;;
15876;SDS011;8037;51.666;7.834;2023-06-14T03:17:34;2.03;;;1.93;;
15876;SDS011;8037;51.666;7.834;2023-06-14T03:20:03;2.90;;;1.93;;
15876;SDS011;8037;51.666;7.834;2023-06-14T03:22:30;2.70;;;2.13;;
15876;SDS011;8037;51.666;7.834;2023-06-14T03:24:59;3.63;;;2.13;;
15876;SDS011;8037;51.666;7.834;2023-06-14T03:27:25;7.60;;;2.40;;
15876;SDS011;8037;51.666;7.834;2023-06-14T03:29:53;15.63;;;2.33;;
15876;SDS011;8037;51.666;7.834;2023-06-14T03:32:19;2.33;;;2.03;;
15876;SDS011;8037;51.666;7.834;2023-06-14T03:34:45;1.97;;;1.77;;
15876;SDS011;8037;51.666;7.834;2023-06-14T03:37:11;2.00;;;1.90;;
15876;SDS011;8037;51.666;7.834;2023-06-14T03:39:37;2.50;;;2.27;;
15876;SDS011;8037;51.666;7.834;2023-06-14T03:42:10;5.47;;;2.67;;
15876;SDS011;8037;51.666;7.834;2023-06-14T03:44:36;2.10;;;1.97;;
15876;SDS011;8037;51.666;7.834;2023-06-14T03:47:03;2.00;;;1.80;;
15876;SDS011;8037;51.666;7.834;2023-06-14T03:49:29;5.93;;;2.40;;
15876;SDS011;8037;51.666;7.834;2023-06-14T03:51:55;2.23;;;2.03;;
15876;SDS011;8037;51.666;7.834;2023-06-14T03:54:21;2.70;;;2.20;;
15876;SDS011;8037;51.666;7.834;2023-06-14T03:56:47;2.00;;;1.90;;
15876;SDS011;8037;51.666;7.834;2023-06-14T03:59:13;3.23;;;1.70;;
15876;SDS011;8037;51.666;7.834;2023-06-14T04:01:38;4.00;;;1.50;;
15876;SDS011;8037;51.666;7.834;2023-06-14T04:04:11;3.17;;;2.00;;
15876;SDS011;8037;51.666;7.834;2023-06-14T04:06:36;2.07;;;1.97;;
15876;SDS011;8037;51.666;7.834;2023-06-14T04:09:02;3.33;;;1.70;;
15876;SDS011;8037;51.666;7.834;2023-06-14T04:11:28;4.67;;;1.77;;
15876;SDS011;8037;51.666;7.834;2023-06-14T04:13:54;2.23;;;1.73;;
15876;SDS011;8037;51.666;7.834;2023-06-14T04:16:21;4.70;;;2.07;;
15876;SDS011;8037;51.666;7.834;2023-06-14T04:18:47;2.03;;;1.50;;
15876;SDS011;8037;51.666;7.834;2023-06-14T04:21:16;1.47;;;1.23;;
15876;SDS011;8037;51.666;7.834;2023-06-14T04:23:42;1.20;;;1.07;;
15876;SDS011;8037;51.666;7.834;2023-06-14T04:26:09;7.33;;;2.10;;
15876;SDS011;8037;51.666;7.834;2023-06-14T04:28:35;0.90;;;0.90;;
15876;SDS011;8037;51.666;7.834;2023-06-14T04:31:06;2.03;;;1.53;;
15876;SDS011;8037;51.666;7.834;2023-06-14T04:33:33;1.77;;;1.60;;
15876;SDS011;8037;51.666;7.834;2023-06-14T04:36:07;6.93;;;1.97;;
15876;SDS011;8037;51.666;7.834;2023-06-14T04:38:34;5.27;;;1.73;;
15876;SDS011;8037;51.666;7.834;2023-06-14T04:41:00;1.77;;;1.30;;
15876;SDS011;8037;51.666;7.834;2023-06-14T04:43:26;17.07;;;1.57;;
15876;SDS011;8037;51.666;7.834;2023-06-14T04:45:52;3.10;;;1.40;;
15876;SDS011;8037;51.666;7.834;2023-06-14T04:48:21;3.90;;;1.47;;
15876;SDS011;8037;51.666;7.834;2023-06-14T04:50:47;8.10;;;0.90;;
15876;SDS011;8037;51.666;7.834;2023-06-14T04:53:17;3.57;;;1.57;;
15876;SDS011;8037;51.666;7.834;2023-06-14T04:55:46;2.60;;;1.40;;
15876;SDS011;8037;51.666;7.834;2023-06-14T04:58:12;2.50;;;1.40;;
15876;SDS011;8037;51.666;7.834;2023-06-14T05:00:38;3.87;;;1.23;;
15876;SDS011;8037;51.666;7.834;2023-06-14T05:03:04;1.23;;;0.93;;
15876;SDS011;8037;51.666;7.834;2023-06-14T05:05:31;4.00;;;1.20;;
15876;SDS011;8037;51.666;7.834;2023-06-14T05:07:57;3.67;;;1.00;;
15876;SDS011;8037;51.666;7.834;2023-06-14T05:10:24;4.30;;;1.70;;
15876;SDS011;8037;51.666;7.834;2023-06-14T05:12:49;5.63;;;1.50;;
15876;SDS011;8037;51.666;7.834;2023-06-14T05:15:17;0.90;;;0.90;;
15876;SDS011;8037;51.666;7.834;2023-06-14T05:17:45;1.17;;;1.17;;
15876;SDS011;8037;51.666;7.834;2023-06-14T05:20:18;1.13;;;1.10;;
15876;SDS011;8037;51.666;7.834;2023-06-14T05:22:44;2.60;;;1.13;;
15876;SDS011;8037;51.666;7.834;2023-06-14T05:25:09;1.30;;;1.20;;
15876;SDS011;8037;51.666;7.834;2023-06-14T05:27:35;1.57;;;1.23;;
15876;SDS011;8037;51.666;7.834;2023-06-14T05:30:02;1.33;;;1.03;;
15876;SDS011;8037;51.666;7.834;2023-06-14T05:32:28;1.10;;;1.10;;
15876;SDS011;8037;51.666;7.834;2023-06-14T05:34:54;5.10;;;1.43;;
15876;SDS011;8037;51.666;7.834;2023-06-14T05:37:20;1.63;;;1.30;;
15876;SDS011;8037;51.666;7.834;2023-06-14T05:39:48;4.03;;;1.37;;
15876;SDS011;8037;51.666;7.834;2023-06-14T05:42:13;7.20;;;1.30;;
15876;SDS011;8037;51.666;7.834;2023-06-14T05:44:39;1.03;;;0.93;;
15876;SDS011;8037;51.666;7.834;2023-06-14T05:47:05;1.40;;;1.30;;
15876;SDS011;8037;51.666;7.834;2023-06-14T05:49:31;2.60;;;1.60;;
15876;SDS011;8037;51.666;7.834;2023-06-14T05:51:57;1.90;;;1.20;;
15876;SDS011;8037;51.666;7.834;2023-06-14T05:54:23;2.00;;;1.80;;
15876;SDS011;8037;51.666;7.834;2023-06-14T05:56:48;2.83;;;1.70;;
15876;SDS011;8037;51.666;7.834;2023-06-14T05:59:14;1.73;;;1.30;;
15876;SDS011;8037;51.666;7.834;2023-06-14T06:01:40;1.80;;;1.70;;
15876;SDS011;8037;51.666;7.834;2023-06-14T06:04:07;1.87;;;1.77;;
15876;SDS011;8037;51.666;7.834;2023-06-14T06:06:33;2.10;;;1.50;;
15876;SDS011;8037;51.666;7.834;2023-06-14T06:09:00;9.17;;;2.37;;
15876;SDS011;8037;51.666;7.834;2023-06-14T06:11:26;1.70;;;1.60;;
15876;SDS011;8037;51.666;7.834;2023-06-14T06:13:52;2.20;;;1.50;;
15876;SDS011;8037;51.666;7.834;2023-06-14T06:16:17;5.73;;;1.73;;
15876;SDS011;8037;51.666;7.834;2023-06-14T06:18:43;1.57;;;1.47;;
15876;SDS011;8037;51.666;7.834;2023-06-14T06:21:09;9.70;;;2.20;;
15876;SDS011;8037;51.666;7.834;2023-06-14T06:23:35;1.60;;;1.50;;
15876;SDS011;8037;51.666;7.834;2023-06-14T06:26:01;1.27;;;1.27;;
15876;SDS011;8037;51.666;7.834;2023-06-14T06:28:27;2.33;;;2.07;;
15876;SDS011;8037;51.666;7.834;2023-06-14T06:30:53;1.63;;;1.53;;
15876;SDS011;8037;51.666;7.834;2023-06-14T06:33:20;5.07;;;2.00;;
15876;SDS011;8037;51.666;7.834;2023-06-14T06:35:46;2.70;;;1.83;;
15876;SDS011;8037;51.666;7.834;2023-06-14T06:38:12;7.70;;;2.10;;
15876;SDS011;8037;51.666;7.834;2023-06-14T06:40:38;5.33;;;2.30;;
15876;SDS011;8037;51.666;7.834;2023-06-14T06:43:04;4.00;;;1.70;;
15876;SDS011;8037;51.666;7.834;2023-06-14T06:45:30;2.63;;;1.37;;
15876;SDS011;8037;51.666;7.834;2023-06-14T06:47:56;5.07;;;2.20;;
15876;SDS011;8037;51.666;7.834;2023-06-14T06:50:22;2.40;;;1.80;;
15876;SDS011;8037;51.666;7.834;2023-06-14T06:52:48;2.20;;;1.77;;
15876;SDS011;8037;51.666;7.834;2023-06-14T06:55:14;2.03;;;1.93;;
15876;SDS011;8037;51.666;7.834;2023-06-14T06:57:40;3.10;;;1.60;;
15876;SDS011;8037;51.666;7.834;2023-06-14T07:00:06;5.30;;;1.33;;
15876;SDS011;8037;51.666;7.834;2023-06-14T07:02:35;5.17;;;1.40;;
15876;SDS011;8037;51.666;7.834;2023-06-14T07:05:02;1.70;;;1.60;;
15876;SDS011;8037;51.666;7.834;2023-06-14T07:07:28;1.10;;;1.10;;
15876;SDS011;8037;51.666;7.834;2023-06-14T07:09:54;2.80;;;1.37;;
15876;SDS011;8037;51.666;7.834;2023-06-14T07:12:22;4.10;;;0.90;;
15876;SDS011;8037;51.666;7.834;2023-06-14T07:14:48;2.13;;;1.30;;
15876;SDS011;8037;51.666;7.834;2023-06-14T07:17:14;1.03;;;1.03;;
15876;SDS011;8037;51.666;7.834;2023-06-14T07:19:40;1.20;;;1.10;;
15876;SDS011;8037;51.666;7.834;2023-06-14T07:22:06;1.57;;;1.00;;
15876;SDS011;8037;51.666;7.834;2023-06-14T07:24:31;3.57;;;1.60;;
15876;SDS011;8037;51.666;7.834;2023-06-14T07:26:57;1.80;;;1.30;;
15876;SDS011;8037;51.666;7.834;2023-06-14T07:29:23;1.47;;;1.37;;
15876;SDS011;8037;51.666;7.834;2023-06-14T07:31:49;1.00;;;1.00;;
15876;SDS011;8037;51.666;7.834;2023-06-14T07:34:15;1.30;;;1.20;;
15876;SDS011;8037;51.666;7.834;2023-06-14T07:36:41;1.10;;;0.93;;
15876;SDS011;8037;51.666;7.834;2023-06-14T07:39:09;1.73;;;0.80;;
15876;SDS011;8037;51.666;7.834;2023-06-14T07:41:35;4.63;;;1.77;;
15876;SDS011;8037;51.666;7.834;2023-06-14T07:44:01;1.30;;;1.20;;
15876;SDS011;8037;51.666;7.834;2023-06-14T07:46:27;3.53;;;1.00;;
15876;SDS011;8037;51.666;7.834;2023-06-14T07:48:53;4.63;;;0.70;;
15876;SDS011;8037;51.666;7.834;2023-06-14T07:51:19;1.53;;;0.90;;
15876;SDS011;8037;51.666;7.834;2023-06-14T07:53:46;1.13;;;0.90;;
15876;SDS011;8037;51.666;7.834;2023-06-14T07:56:12;3.57;;;0.70;;
15876;SDS011;8037;51.666;7.834;2023-06-14T07:58:38;1.57;;;1.07;;
15876;SDS011;8037;51.666;7.834;2023-06-14T08:01:04;1.87;;;1.10;;
15876;SDS011;8037;51.666;7.834;2023-06-14T08:03:32;0.80;;;0.80;;
15876;SDS011;8037;51.666;7.834;2023-06-14T08:05:58;3.23;;;1.17;;
15876;SDS011;8037;51.666;7.834;2023-06-14T08:08:25;1.30;;;0.70;;
15876;SDS011;8037;51.666;7.834;2023-06-14T08:10:51;0.97;;;0.97;;
15876;SDS011;8037;51.666;7.834;2023-06-14T08:13:17;1.73;;;0.70;;
15876;SDS011;8037;51.666;7.834;2023-06-14T08:15:43;2.00;;;1.20;;
15876;SDS011;8037;51.666;7.834;2023-06-14T08:18:09;0.80;;;0.80;;
15876;SDS011;8037;51.666;7.834;2023-06-14T08:20:35;12.40;;;1.13;;
15876;SDS011;8037;51.666;7.834;2023-06-14T08:23:04;0.73;;;0.73;;
15876;SDS011;8037;51.666;7.834;2023-06-14T08:25:30;0.57;;;0.57;;
15876;SDS011;8037;51.666;7.834;2023-06-14T08:27:56;1.03;;;0.60;;
15876;SDS011;8037;51.666;7.834;2023-06-14T08:30:22;7.10;;;1.07;;
15876;SDS011;8037;51.666;7.834;2023-06-14T08:32:48;0.70;;;0.70;;
15876;SDS011;8037;51.666;7.834;2023-06-14T08:35:14;1.20;;;0.90;;
15876;SDS011;8037;51.666;7.834;2023-06-14T08:37:41;2.60;;;0.97;;
15876;SDS011;8037;51.666;7.834;2023-06-14T08:40:12;1.00;;;1.00;;
15876;SDS011;8037;51.666;7.834;2023-06-14T08:42:44;1.20;;;1.03;;
15876;SDS011;8037;51.666;7.834;2023-06-14T08:45:10;9.87;;;0.90;;
15876;SDS011;8037;51.666;7.834;2023-06-14T08:47:36;1.30;;;1.20;;
15876;SDS011;8037;51.666;7.834;2023-06-14T08:50:02;1.00;;;1.00;;
15876;SDS011;8037;51.666;7.834;2023-06-14T08:52:29;1.63;;;1.07;;
15876;SDS011;8037;51.666;7.834;2023-06-14T08:54:59;0.70;;;0.70;;
15876;SDS011;8037;51.666;7.834;2023-06-14T08:57:27;1.10;;;1.00;;
15876;SDS011;8037;51.666;7.834;2023-06-14T08:59:55;0.90;;;0.77;;
15876;SDS011;8037;51.666;7.834;2023-06-14T09:02:21;1.33;;;1.23;;
15876;SDS011;8037;51.666;7.834;2023-06-14T09:04:47;0.90;;;0.90;;
15876;SDS011;8037;51.666;7.834;2023-06-14T09:07:14;1.13;;;1.03;;
15876;SDS011;8037;51.666;7.834;2023-06-14T09:09:41;1.03;;;1.00;;
15876;SDS011;8037;51.666;7.834;2023-06-14T09:12:08;13.53;;;1.37;;
15876;SDS011;8037;51.666;7.834;2023-06-14T09:14:36;3.50;;;1.10;;
15876;SDS011;8037;51.666;7.834;2023-06-14T09:17:04;1.13;;;1.13;;
15876;SDS011;8037;51.666;7.834;2023-06-14T09:19:30;1.10;;;1.00;;
15876;SDS011;8037;51.666;7.834;2023-06-14T09:21:56;1.27;;;1.00;;
15876;SDS011;8037;51.666;7.834;2023-06-14T09:24:23;0.80;;;0.80;;
15876;SDS011;8037;51.666;7.834;2023-06-14T09:26:51;1.13;;;0.83;;
15876;SDS011;8037;51.666;7.834;2023-06-14T09:29:17;3.90;;;1.67;;
15876;SDS011;8037;51.666;7.834;2023-06-14T09:31:46;0.80;;;0.80;;
15876;SDS011;8037;51.666;7.834;2023-06-14T09:34:12;0.93;;;0.93;;
15876;SDS011;8037;51.666;7.834;2023-06-14T09:36:38;1.13;;;0.70;;
15876;SDS011;8037;51.666;7.834;2023-06-14T09:39:07;0.80;;;0.80;;
15876;SDS011;8037;51.666;7.834;2023-06-14T09:41:37;0.90;;;0.90;;
15876;SDS011;8037;51.666;7.834;2023-06-14T09:44:04;1.03;;;1.03;;
15876;SDS011;8037;51.666;7.834;2023-06-14T09:46:31;0.77;;;0.77;;
15876;SDS011;8037;51.666;7.834;2023-06-14T09:48:57;0.93;;;0.90;;
15876;SDS011;8037;51.666;7.834;2023-06-14T09:51:24;1.17;;;1.17;;
15876;SDS011;8037;51.666;7.834;2023-06-14T09:53:50;1.00;;;1.00;;
15876;SDS011;8037;51.666;7.834;2023-06-14T09:58:58;2.40;;;1.10;;
15876;SDS011;8037;51.666;7.834;2023-06-14T10:01:25;1.00;;;1.00;;
15876;SDS011;8037;51.666;7.834;2023-06-14T10:03:53;6.00;;;1.20;;
15876;SDS011;8037;51.666;7.834;2023-06-14T10:06:22;1.50;;;1.40;;
15876;SDS011;8037;51.666;7.834;2023-06-14T10:08:49;2.10;;;1.03;;
15876;SDS011;8037;51.666;7.834;2023-06-14T10:11:16;2.17;;;1.13;;
15876;SDS011;8037;51.666;7.834;2023-06-14T10:13:42;1.73;;;1.50;;
15876;SDS011;8037;51.666;7.834;2023-06-14T10:16:12;1.60;;;1.50;;
15876;SDS011;8037;51.666;7.834;2023-06-14T10:23:40;1.73;;;1.63;;
15876;SDS011;8037;51.666;7.834;2023-06-14T10:26:07;1.20;;;1.20;;
15876;SDS011;8037;51.666;7.834;2023-06-14T10:28:33;3.83;;;1.40;;
15876;SDS011;8037;51.666;7.834;2023-06-14T10:33:47;1.40;;;1.30;;
15876;SDS011;8037;51.666;7.834;2023-06-14T10:38:46;1.50;;;1.40;;
15876;SDS011;8037;51.666;7.834;2023-06-14T10:41:22;3.70;;;1.27;;
15876;SDS011;8037;51.666;7.834;2023-06-14T10:43:48;1.87;;;1.13;;
15876;SDS011;8037;51.666;7.834;2023-06-14T10:46:17;1.50;;;1.30;;
15876;SDS011;8037;51.666;7.834;2023-06-14T10:48:46;1.63;;;1.33;;
15876;SDS011;8037;51.666;7.834;2023-06-14T10:51:15;4.00;;;1.53;;
15876;SDS011;8037;51.666;7.834;2023-06-14T10:53:45;1.10;;;1.10;;
15876;SDS011;8037;51.666;7.834;2023-06-14T10:56:22;1.60;;;1.20;;
15876;SDS011;8037;51.666;7.834;2023-06-14T10:58:49;6.13;;;1.80;;
15876;SDS011;8037;51.666;7.834;2023-06-14T11:01:16;1.83;;;1.30;;
15876;SDS011;8037;51.666;7.834;2023-06-14T11:03:46;7.37;;;1.53;;
15876;SDS011;8037;51.666;7.834;2023-06-14T11:06:17;1.50;;;1.40;;
15876;SDS011;8037;51.666;7.834;2023-06-14T11:11:21;1.87;;;1.70;;
15876;SDS011;8037;51.666;7.834;2023-06-14T11:13:50;1.93;;;1.80;;
15876;SDS011;8037;51.666;7.834;2023-06-14T11:16:17;1.07;;;1.07;;
15876;SDS011;8037;51.666;7.834;2023-06-14T11:18:46;1.50;;;1.40;;
15876;SDS011;8037;51.666;7.834;2023-06-14T11:21:15;1.90;;;1.80;;
15876;SDS011;8037;51.666;7.834;2023-06-14T11:23:43;1.57;;;1.00;;
15876;SDS011;8037;51.666;7.834;2023-06-14T11:26:14;1.90;;;1.80;;
15876;SDS011;8037;51.666;7.834;2023-06-14T11:28:40;2.20;;;1.90;;
15876;SDS011;8037;51.666;7.834;2023-06-14T11:31:07;1.63;;;1.23;;
15876;SDS011;8037;51.666;7.834;2023-06-14T11:33:33;3.50;;;1.37;;
15876;SDS011;8037;51.666;7.834;2023-06-14T11:36:02;1.67;;;1.50;;
15876;SDS011;8037;51.666;7.834;2023-06-14T11:38:29;2.03;;;1.40;;
15876;SDS011;8037;51.666;7.834;2023-06-14T11:40:58;1.40;;;1.30;;
15876;SDS011;8037;51.666;7.834;2023-06-14T11:43:24;1.53;;;1.43;;
15876;SDS011;8037;51.666;7.834;2023-06-14T11:45:52;1.90;;;1.80;;
15876;SDS011;8037;51.666;7.834;2023-06-14T11:48:18;6.13;;;1.53;;
15876;SDS011;8037;51.666;7.834;2023-06-14T11:50:44;1.40;;;1.40;;
15876;SDS011;8037;51.666;7.834;2023-06-14T11:53:15;1.80;;;1.70;;
15876;SDS011;8037;51.666;7.834;2023-06-14T11:55:41;2.10;;;2.00;;
15876;SDS011;8037;51.666;7.834;2023-06-14T11:58:09;2.27;;;1.40;;
15876;SDS011;8037;51.666;7.834;2023-06-14T12:00:36;1.17;;;1.17;;
15876;SDS011;8037;51.666;7.834;2023-06-14T12:03:02;1.40;;;1.37;;
15876;SDS011;8037;51.666;7.834;2023-06-14T12:05:28;2.10;;;1.60;;
15876;SDS011;8037;51.666;7.834;2023-06-14T12:08:00;1.83;;;1.73;;
15876;SDS011;8037;51.666;7.834;2023-06-14T12:10:27;1.50;;;1.40;;
15876;SDS011;8037;51.666;7.834;2023-06-14T12:12:56;1.60;;;1.50;;
15876;SDS011;8037;51.666;7.834;2023-06-14T12:15:23;2.00;;;1.80;;
15876;SDS011;8037;51.666;7.834;2023-06-14T12:17:49;1.47;;;1.37;;
15876;SDS011;8037;51.666;7.834;2023-06-14T12:20:15;1.83;;;1.73;;
15876;SDS011;8037;51.666;7.834;2023-06-14T12:22:50;1.93;;;1.80;;
15876;SDS011;8037;51.666;7.834;2023-06-14T12:25:23;2.30;;;1.57;;
15876;SDS011;8037;51.666;7.834;2023-06-14T12:27:51;6.33;;;1.80;;
15876;SDS011;8037;51.666;7.834;2023-06-14T12:30:17;2.50;;;1.60;;
15876;SDS011;8037;51.666;7.834;2023-06-14T12:32:43;1.40;;;1.30;;
15876;SDS011;8037;51.666;7.834;2023-06-14T12:35:10;1.40;;;1.40;;
15876;SDS011;8037;51.666;7.834;2023-06-14T12:37:36;8.30;;;1.63;;
15876;SDS011;8037;51.666;7.834;2023-06-14T12:40:02;5.07;;;2.53;;
15876;SDS011;8037;51.666;7.834;2023-06-14T12:42:30;1.40;;;1.40;;
15876;SDS011;8037;51.666;7.834;2023-06-14T12:44:56;1.73;;;1.63;;
15876;SDS011;8037;51.666;7.834;2023-06-14T12:47:22;1.40;;;1.33;;
15876;SDS011;8037;51.666;7.834;2023-06-14T12:49:48;1.57;;;1.47;;
15876;SDS011;8037;51.666;7.834;2023-06-14T12:52:15;3.43;;;1.50;;
15876;SDS011;8037;51.666;7.834;2023-06-14T12:54:41;9.93;;;1.80;;
15876;SDS011;8037;51.666;7.834;2023-06-14T12:57:06;2.30;;;1.77;;
15876;SDS011;8037;51.666;7.834;2023-06-14T12:59:32;2.03;;;1.87;;
15876;SDS011;8037;51.666;7.834;2023-06-14T13:01:59;2.40;;;1.67;;
15876;SDS011;8037;51.666;7.834;2023-06-14T13:04:25;2.47;;;1.73;;
15876;SDS011;8037;51.666;7.834;2023-06-14T13:06:51;1.60;;;1.50;;
15876;SDS011;8037;51.666;7.834;2023-06-14T13:09:17;1.37;;;1.27;;
15876;SDS011;8037;51.666;7.834;2023-06-14T13:11:43;8.03;;;1.57;;
15876;SDS011;8037;51.666;7.834;2023-06-14T13:14:10;9.10;;;1.30;;
15876;SDS011;8037;51.666;7.834;2023-06-14T13:16:36;2.13;;;1.53;;
15876;SDS011;8037;51.666;7.834;2023-06-14T13:19:02;2.23;;;2.03;;
15876;SDS011;8037;51.666;7.834;2023-06-14T13:21:28;1.77;;;1.67;;
15876;SDS011;8037;51.666;7.834;2023-06-14T13:23:54;1.57;;;1.50;;
15876;SDS011;8037;51.666;7.834;2023-06-14T13:26:20;3.00;;;1.50;;
15876;SDS011;8037;51.666;7.834;2023-06-14T13:28:46;2.40;;;1.60;;
15876;SDS011;8037;51.666;7.834;2023-06-14T13:31:12;2.00;;;1.90;;
15876;SDS011;8037;51.666;7.834;2023-06-14T13:33:37;1.77;;;1.67;;
15876;SDS011;8037;51.666;7.834;2023-06-14T13:36:03;1.97;;;1.87;;
15876;SDS011;8037;51.666;7.834;2023-06-14T13:38:29;2.50;;;2.10;;
15876;SDS011;8037;51.666;7.834;2023-06-14T13:40:55;1.30;;;1.30;;
15876;SDS011;8037;51.666;7.834;2023-06-14T13:43:21;1.80;;;1.70;;
15876;SDS011;8037;51.666;7.834;2023-06-14T13:45:47;2.77;;;2.10;;
15876;SDS011;8037;51.666;7.834;2023-06-14T13:48:13;1.80;;;1.27;;
15876;SDS011;8037;51.666;7.834;2023-06-14T13:50:39;1.47;;;1.37;;
15876;SDS011;8037;51.666;7.834;2023-06-14T13:53:05;4.07;;;1.40;;
15876;SDS011;8037;51.666;7.834;2023-06-14T13:55:31;1.90;;;1.80;;
15876;SDS011;8037;51.666;7.834;2023-06-14T13:57:57;1.90;;;1.80;;
15876;SDS011;8037;51.666;7.834;2023-06-14T14:00:23;1.10;;;1.10;;
15876;SDS011;8037;51.666;7.834;2023-06-14T14:02:50;1.70;;;1.60;;
15876;SDS011;8037;51.666;7.834;2023-06-14T14:05:16;1.93;;;1.83;;
15876;SDS011;8037;51.666;7.834;2023-06-14T14:07:42;1.80;;;1.70;;
15876;SDS011;8037;51.666;7.834;2023-06-14T14:10:08;2.00;;;1.20;;
15876;SDS011;8037;51.666;7.834;2023-06-14T14:12:34;1.67;;;1.40;;
15876;SDS011;8037;51.666;7.834;2023-06-14T14:15:00;1.50;;;1.40;;
15876;SDS011;8037;51.666;7.834;2023-06-14T14:17:26;2.13;;;1.70;;
15876;SDS011;8037;51.666;7.834;2023-06-14T14:19:52;1.87;;;1.77;;
15876;SDS011;8037;51.666;7.834;2023-06-14T14:22:17;1.70;;;1.57;;
15876;SDS011;8037;51.666;7.834;2023-06-14T14:24:43;1.60;;;1.50;;
15876;SDS011;8037;51.666;7.834;2023-06-14T14:27:09;1.40;;;1.30;;
15876;SDS011;8037;51.666;7.834;2023-06-14T14:29:36;1.57;;;1.37;;
15876;SDS011;8037;51.666;7.834;2023-06-14T14:32:02;2.20;;;1.67;;
15876;SDS011;8037;51.666;7.834;2023-06-14T14:34:28;1.83;;;1.73;;
15876;SDS011;8037;51.666;7.834;2023-06-14T14:36:54;2.17;;;1.93;;
15876;SDS011;8037;51.666;7.834;2023-06-14T14:39:21;1.90;;;1.80;;
15876;SDS011;8037;51.666;7.834;2023-06-14T14:41:47;1.60;;;1.60;;
15876;SDS011;8037;51.666;7.834;2023-06-14T14:44:13;2.23;;;1.90;;
15876;SDS011;8037;51.666;7.834;2023-06-14T14:46:38;1.60;;;1.50;;
15876;SDS011;8037;51.666;7.834;2023-06-14T14:49:05;1.40;;;1.40;;
15876;SDS011;8037;51.666;7.834;2023-06-14T14:51:30;1.83;;;1.60;;
15876;SDS011;8037;51.666;7.834;2023-06-14T14:53:56;1.70;;;1.60;;
15876;SDS011;8037;51.666;7.834;2023-06-14T14:56:22;4.33;;;1.47;;
15876;SDS011;8037;51.666;7.834;2023-06-14T14:58:48;1.80;;;1.70;;
15876;SDS011;8037;51.666;7.834;2023-06-14T15:01:15;1.43;;;1.43;;
15876;SDS011;8037;51.666;7.834;2023-06-14T15:03:41;2.17;;;1.87;;
15876;SDS011;8037;51.666;7.834;2023-06-14T15:06:07;3.53;;;1.83;;
15876;SDS011;8037;51.666;7.834;2023-06-14T15:08:33;1.53;;;1.37;;
15876;SDS011;8037;51.666;7.834;2023-06-14T15:10:59;1.80;;;1.70;;
15876;SDS011;8037;51.666;7.834;2023-06-14T15:13:27;1.93;;;1.33;;
15876;SDS011;8037;51.666;7.834;2023-06-14T15:15:53;1.97;;;1.87;;